createdAt,value
2018-11-10T00:00:03.031Z,49.53
2018-11-10T00:02:31.436Z,53.08
2018-11-10T00:04:59.666Z,61.75
2018-11-10T00:07:27.891Z,47.67
2018-11-10T00:09:56.081Z,52.98
2018-11-10T00:12:24.302Z,54.03
2018-11-10T00:14:52.514Z,58.10
2018-11-10T00:17:20.719Z,56.28
2018-11-10T00:19:48.997Z,46.90
2018-11-10T00:22:17.225Z,59.05
2018-11-10T00:24:45.448Z,55.38
2018-11-10T00:27:13.663Z,50.92
2018-11-10T00:29:41.911Z,56.85
2018-11-10T00:32:10.163Z,59.20
2018-11-10T00:34:38.419Z,49.27
2018-11-10T00:37:06.637Z,54.30
2018-11-10T00:39:34.845Z,44.30
2018-11-10T00:42:03.083Z,44.38
2018-11-10T00:44:31.291Z,41.30
2018-11-10T00:46:59.516Z,52.45
2018-11-10T00:49:27.762Z,40.70
2018-11-10T00:51:55.994Z,50.55
2018-11-10T00:54:24.227Z,41.00
2018-11-10T00:56:52.457Z,34.58
2018-11-10T00:59:20.915Z,40.25
2018-11-10T01:01:49.140Z,37.05
2018-11-10T01:04:17.347Z,40.43
2018-11-10T01:06:45.661Z,35.00
2018-11-10T01:09:13.898Z,39.98
2018-11-10T01:11:42.091Z,41.65
2018-11-10T01:14:10.301Z,43.70
2018-11-10T01:16:38.562Z,33.13
2018-11-10T01:19:08.774Z,33.13
2018-11-10T01:21:36.974Z,37.78
2018-11-10T01:24:05.172Z,42.93
2018-11-10T01:26:33.372Z,36.63
2018-11-10T01:29:01.563Z,40.92
2018-11-10T01:31:29.754Z,38.20
2018-11-10T01:33:57.966Z,33.98
2018-11-10T01:36:26.171Z,37.03
2018-11-10T01:38:54.411Z,35.08
2018-11-10T01:41:22.605Z,32.08
2018-11-10T01:43:50.806Z,33.25
2018-11-10T01:46:18.997Z,36.13
2018-11-10T01:48:47.208Z,37.33
2018-11-10T01:51:15.413Z,33.45
2018-11-10T01:53:44.072Z,30.48
2018-11-10T01:56:12.297Z,32.60
2018-11-10T01:58:40.507Z,34.35
2018-11-10T02:01:08.734Z,32.25
2018-11-10T02:03:36.950Z,34.27
2018-11-10T02:06:05.215Z,35.68
2018-11-10T02:08:33.419Z,32.55
2018-11-10T02:11:01.667Z,36.30
2018-11-10T02:13:29.878Z,36.35
2018-11-10T02:15:58.075Z,37.53
2018-11-10T02:18:26.337Z,30.62
2018-11-10T02:20:54.537Z,32.40
2018-11-10T02:23:22.757Z,32.67
2018-11-10T02:25:50.966Z,38.42
2018-11-10T02:28:19.166Z,32.78
2018-11-10T02:30:47.382Z,36.25
2018-11-10T02:33:15.585Z,33.30
2018-11-10T02:35:43.782Z,30.25
2018-11-10T02:38:11.974Z,27.95
2018-11-10T02:40:40.206Z,30.77
2018-11-10T02:43:08.401Z,31.23
2018-11-10T02:45:36.697Z,37.65
2018-11-10T02:48:04.919Z,32.78
2018-11-10T02:50:33.106Z,31.45
2018-11-10T02:53:01.964Z,31.73
2018-11-10T02:55:30.209Z,30.80
2018-11-10T02:57:58.422Z,31.80
2018-11-10T03:00:26.651Z,27.70
2018-11-10T03:02:54.878Z,23.27
2018-11-10T03:05:23.106Z,23.77
2018-11-10T03:07:51.324Z,19.50
2018-11-10T03:10:19.538Z,22.58
2018-11-10T03:12:47.734Z,22.58
2018-11-10T03:15:15.954Z,19.00
2018-11-10T03:17:44.174Z,21.82
2018-11-10T03:20:13.857Z,19.23
2018-11-10T03:22:42.554Z,22.30
2018-11-10T03:25:11.223Z,23.98
2018-11-10T03:27:39.543Z,19.77
2018-11-10T03:30:07.942Z,23.05
2018-11-10T03:32:36.670Z,26.77
2018-11-10T03:35:05.688Z,24.32
2018-11-10T03:37:34.041Z,28.40
2018-11-10T03:40:02.408Z,23.10
2018-11-10T03:42:30.642Z,24.75
2018-11-10T03:44:58.882Z,24.47
2018-11-10T03:47:27.087Z,28.35
2018-11-10T03:49:55.318Z,23.40
2018-11-10T03:52:23.522Z,22.85
2018-11-10T03:54:51.751Z,24.43
2018-11-10T03:57:19.990Z,32.60
2018-11-10T03:59:48.251Z,23.00
2018-11-10T04:02:16.451Z,26.07
2018-11-10T04:04:44.705Z,26.75
2018-11-10T04:07:12.986Z,30.12
2018-11-10T04:09:41.254Z,27.17
2018-11-10T04:12:09.518Z,27.20
2018-11-10T04:14:37.753Z,22.98
2018-11-10T04:17:05.987Z,23.35
2018-11-10T04:19:34.218Z,42.88
2018-11-10T04:22:02.442Z,25.50
2018-11-10T04:24:30.687Z,24.98
2018-11-10T04:26:58.940Z,23.73
2018-11-10T04:29:27.154Z,24.60
2018-11-10T04:31:55.368Z,26.40
2018-11-10T04:34:23.597Z,23.05
2018-11-10T04:36:51.827Z,20.92
2018-11-10T04:39:20.048Z,24.00
2018-11-10T04:41:48.268Z,26.37
2018-11-10T04:44:16.497Z,23.07
2018-11-10T04:46:44.756Z,28.15
2018-11-10T04:49:13.021Z,28.23
2018-11-10T04:51:41.249Z,25.35
2018-11-10T04:54:09.479Z,24.43
2018-11-10T04:56:37.725Z,27.82
2018-11-10T04:59:05.950Z,24.25
2018-11-10T05:01:34.329Z,29.50
2018-11-10T05:04:02.457Z,26.37
2018-11-10T05:06:30.674Z,23.65
2018-11-10T05:08:58.915Z,25.25
2018-11-10T05:11:27.122Z,29.75
2018-11-10T05:13:55.354Z,26.80
2018-11-10T05:16:29.337Z,27.37
2018-11-10T05:18:57.564Z,27.07
2018-11-10T05:21:25.782Z,28.70
2018-11-10T05:23:54.089Z,27.50
2018-11-10T05:26:22.346Z,35.35
2018-11-10T05:28:50.612Z,22.22
2018-11-10T05:31:18.923Z,25.88
2018-11-10T05:33:47.151Z,28.23
2018-11-10T05:36:15.494Z,19.40
2018-11-10T05:38:43.691Z,23.35
2018-11-10T05:41:11.985Z,29.32
2018-11-10T05:43:40.257Z,19.80
2018-11-10T05:46:08.514Z,24.85
2018-11-10T05:48:36.772Z,25.65
2018-11-10T05:51:05.409Z,23.90
2018-11-10T05:53:33.656Z,23.62
2018-11-10T05:56:01.907Z,23.18
2018-11-10T05:58:30.143Z,23.32
2018-11-10T06:00:58.472Z,23.15
2018-11-10T06:03:26.700Z,22.42
2018-11-10T06:05:54.959Z,20.70
2018-11-10T06:08:23.234Z,27.05
2018-11-10T06:10:51.538Z,30.57
2018-11-10T06:13:19.817Z,25.90
2018-11-10T06:15:48.091Z,27.77
2018-11-10T06:18:16.343Z,28.95
2018-11-10T06:20:44.613Z,26.57
2018-11-10T06:23:13.010Z,40.75
2018-11-10T06:25:41.308Z,32.00
2018-11-10T06:28:09.675Z,31.15
2018-11-10T06:30:37.938Z,32.63
2018-11-10T06:33:06.236Z,40.25
2018-11-10T06:35:34.535Z,34.15
2018-11-10T06:38:02.855Z,30.43
2018-11-10T06:40:31.162Z,25.45
2018-11-10T06:42:59.444Z,34.03
2018-11-10T06:45:27.735Z,34.65
2018-11-10T06:47:55.994Z,29.50
2018-11-10T06:50:24.260Z,20.77
2018-11-10T06:52:52.598Z,21.97
2018-11-10T06:55:20.824Z,35.60
2018-11-10T06:57:49.091Z,28.50
2018-11-10T07:00:17.355Z,21.33
2018-11-10T07:02:45.623Z,23.10
2018-11-10T07:05:13.996Z,24.90
2018-11-10T07:07:42.361Z,21.70
2018-11-10T07:10:10.856Z,24.32
2018-11-10T07:12:39.127Z,22.30
2018-11-10T07:15:08.156Z,19.67
2018-11-10T07:17:36.480Z,17.82
2018-11-10T07:20:05.350Z,20.17
2018-11-10T07:22:33.854Z,19.42
2018-11-10T07:25:02.366Z,20.75
2018-11-10T07:27:30.574Z,19.50
2018-11-10T07:29:58.863Z,23.32
2018-11-10T07:32:27.192Z,18.17
2018-11-10T07:34:55.558Z,17.17
2018-11-10T07:37:23.830Z,19.37
2018-11-10T07:39:52.130Z,18.50
2018-11-10T07:42:20.449Z,20.80
2018-11-10T07:44:48.758Z,22.40
2018-11-10T07:47:17.006Z,20.25
2018-11-10T07:49:45.278Z,20.20
2018-11-10T07:52:13.553Z,22.77
2018-11-10T07:54:41.844Z,19.52
2018-11-10T07:57:10.183Z,19.50
2018-11-10T07:59:38.555Z,18.67
2018-11-10T08:02:06.865Z,22.70
2018-11-10T08:04:35.121Z,20.55
2018-11-10T08:07:03.478Z,19.42
2018-11-10T08:09:31.833Z,27.00
2018-11-10T08:12:00.185Z,23.47
2018-11-10T08:14:28.534Z,18.90
2018-11-10T08:16:56.856Z,23.40
2018-11-10T08:19:25.075Z,22.07
2018-11-10T08:21:53.316Z,25.43
2018-11-10T08:24:21.592Z,21.65
2018-11-10T08:26:49.870Z,21.60
2018-11-10T08:29:18.146Z,17.87
2018-11-10T08:31:46.435Z,15.15
2018-11-10T08:34:14.865Z,16.77
2018-11-10T08:36:43.095Z,18.07
2018-11-10T08:39:11.765Z,17.82
2018-11-10T08:41:39.963Z,25.70
2018-11-10T08:44:08.514Z,20.00
2018-11-10T08:46:36.798Z,17.77
2018-11-10T08:49:05.259Z,15.75
2018-11-10T08:51:33.479Z,23.55
2018-11-10T08:54:01.770Z,20.00
2018-11-10T08:56:30.055Z,19.98
2018-11-10T08:58:58.459Z,16.35
2018-11-10T09:01:26.698Z,18.85
2018-11-10T09:03:55.039Z,17.15
2018-11-10T09:06:23.315Z,17.85
2018-11-10T09:08:51.594Z,17.73
2018-11-10T09:11:19.907Z,19.65
2018-11-10T09:13:48.265Z,19.62
2018-11-10T09:16:16.524Z,24.00
2018-11-10T09:18:44.814Z,19.75
2018-11-10T09:21:13.130Z,17.20
2018-11-10T09:23:41.433Z,22.22
2018-11-10T09:26:09.665Z,19.48
2018-11-10T09:28:37.939Z,20.90
2018-11-10T09:31:06.359Z,17.32
2018-11-10T09:33:34.574Z,16.73
2018-11-10T09:36:02.836Z,16.57
2018-11-10T09:38:31.056Z,17.82
2018-11-10T09:40:59.390Z,18.27
2018-11-10T09:43:27.673Z,19.50
2018-11-10T09:45:55.900Z,21.25
2018-11-10T09:48:24.198Z,17.77
2018-11-10T09:50:52.499Z,17.40
2018-11-10T09:53:20.874Z,20.12
2018-11-10T09:55:49.157Z,20.00
2018-11-10T09:58:17.490Z,17.77
2018-11-10T10:00:45.747Z,17.35
2018-11-10T10:03:14.155Z,18.82
2018-11-10T10:05:42.698Z,16.67
2018-11-10T10:08:10.962Z,15.15
2018-11-10T10:10:39.313Z,15.40
2018-11-10T10:13:07.590Z,20.27
2018-11-10T10:15:35.921Z,15.83
2018-11-10T10:18:04.141Z,17.67
2018-11-10T10:20:32.397Z,16.00
2018-11-10T10:23:00.869Z,16.73
2018-11-10T10:25:29.315Z,17.95
2018-11-10T10:27:57.578Z,17.85
2018-11-10T10:30:26.420Z,20.27
2018-11-10T10:32:54.788Z,19.32
2018-11-10T10:35:23.325Z,18.30
2018-11-10T10:37:52.261Z,15.50
2018-11-10T10:40:20.540Z,19.20
2018-11-10T10:42:49.094Z,16.62
2018-11-10T10:45:19.793Z,21.77
2018-11-10T10:47:48.113Z,15.58
2018-11-10T10:50:17.739Z,19.25
2018-11-10T10:52:46.027Z,18.35
2018-11-10T10:55:15.396Z,19.45
2018-11-10T10:57:44.703Z,17.95
2018-11-10T11:00:18.861Z,15.95
2018-11-10T11:02:52.738Z,17.65
2018-11-10T11:05:26.276Z,16.57
2018-11-10T11:07:54.676Z,16.30
2018-11-10T11:10:24.014Z,16.75
2018-11-10T11:12:52.262Z,17.00
2018-11-10T11:15:21.248Z,17.95
2018-11-10T11:17:49.381Z,18.65
2018-11-10T11:20:17.666Z,18.65
2018-11-10T11:22:45.926Z,19.98
2018-11-10T11:25:14.742Z,16.42
2018-11-10T11:27:43.080Z,20.35
2018-11-10T11:30:11.446Z,17.12
2018-11-10T11:32:39.689Z,16.52
2018-11-10T11:35:09.783Z,19.73
2018-11-10T11:37:38.443Z,19.00
2018-11-10T11:40:08.643Z,15.03
2018-11-10T11:42:37.037Z,16.87
2018-11-10T11:45:06.397Z,19.98
2018-11-10T11:47:34.726Z,15.75
2018-11-10T11:50:03.026Z,14.40
2018-11-10T11:52:31.346Z,16.07
2018-11-10T11:54:59.730Z,16.82
2018-11-10T11:57:28.097Z,17.02
2018-11-10T11:59:56.286Z,21.87
2018-11-10T12:02:24.678Z,16.90
2018-11-10T12:04:52.941Z,16.57
2018-11-10T12:07:21.297Z,17.95
2018-11-10T12:09:49.590Z,17.45
2018-11-10T12:12:17.886Z,16.17
2018-11-10T12:14:46.215Z,15.23
2018-11-10T12:17:14.464Z,18.20
2018-11-10T12:19:42.694Z,15.60
2018-11-10T12:22:11.119Z,16.57
2018-11-10T12:24:39.337Z,16.07
2018-11-10T12:27:07.613Z,18.20
2018-11-10T12:29:35.922Z,15.65
2018-11-10T12:32:04.270Z,18.65
2018-11-10T12:34:32.438Z,16.07
2018-11-10T12:37:00.733Z,15.13
2018-11-10T12:39:29.009Z,16.07
2018-11-10T12:41:57.432Z,18.45
2018-11-10T12:44:25.663Z,17.20
2018-11-10T12:46:53.935Z,15.08
2018-11-10T12:49:22.218Z,17.48
2018-11-10T12:51:50.486Z,17.65
2018-11-10T12:54:18.763Z,17.62
2018-11-10T12:56:47.021Z,17.25
2018-11-10T12:59:15.272Z,14.95
2018-11-10T13:01:43.483Z,15.78
2018-11-10T13:04:11.787Z,19.57
2018-11-10T13:06:40.047Z,15.70
2018-11-10T13:09:09.660Z,18.80
2018-11-10T13:11:38.354Z,20.85
2018-11-10T13:14:07.951Z,19.82
2018-11-10T13:16:36.294Z,19.17
2018-11-10T13:19:05.001Z,19.60
2018-11-10T13:21:33.270Z,16.67
2018-11-10T13:24:01.591Z,19.10
2018-11-10T13:26:29.935Z,17.70
2018-11-10T13:28:58.263Z,19.55
2018-11-10T13:31:26.726Z,16.67
2018-11-10T13:33:54.929Z,16.95
2018-11-10T13:36:23.454Z,21.48
2018-11-10T13:38:51.815Z,15.65
2018-11-10T13:41:20.055Z,15.72
2018-11-10T13:43:48.491Z,16.97
2018-11-10T13:46:17.052Z,20.05
2018-11-10T13:48:45.458Z,17.70
2018-11-10T13:51:14.066Z,18.80
2018-11-10T13:53:42.077Z,20.77
2018-11-10T13:56:10.346Z,18.85
2018-11-10T13:58:38.622Z,17.52
2018-11-10T14:01:07.694Z,17.20
2018-11-10T14:03:36.103Z,19.98
2018-11-10T14:06:04.392Z,16.27
2018-11-10T14:08:32.759Z,21.77
2018-11-10T14:11:01.056Z,19.85
2018-11-10T14:13:29.347Z,18.65
2018-11-10T14:15:57.648Z,22.07
2018-11-10T14:18:25.922Z,17.07
2018-11-10T14:20:54.238Z,15.70
2018-11-10T14:23:22.591Z,17.40
2018-11-10T14:25:50.917Z,18.82
2018-11-10T14:28:19.176Z,19.82
2018-11-10T14:30:47.423Z,17.02
2018-11-10T14:33:15.810Z,19.70
2018-11-10T14:35:44.078Z,15.93
2018-11-10T14:38:12.381Z,16.32
2018-11-10T14:40:40.787Z,19.20
2018-11-10T14:43:09.050Z,18.05
2018-11-10T14:45:37.297Z,18.07
2018-11-10T14:48:05.566Z,18.52
2018-11-10T14:50:33.833Z,30.90
2018-11-10T14:53:02.347Z,23.65
2018-11-10T14:55:30.394Z,21.30
2018-11-10T14:57:58.720Z,17.75
2018-11-10T15:00:28.692Z,21.20
2018-11-10T15:02:57.170Z,21.35
2018-11-10T15:05:25.660Z,22.40
2018-11-10T15:07:53.932Z,25.48
2018-11-10T15:10:22.244Z,19.23
2018-11-10T15:12:50.613Z,20.92
2018-11-10T15:15:19.438Z,22.80
2018-11-10T15:17:48.019Z,21.17
2018-11-10T15:20:17.332Z,26.35
2018-11-10T15:22:45.619Z,22.77
2018-11-10T15:25:15.394Z,21.85
2018-11-10T15:27:43.618Z,21.97
2018-11-10T15:30:14.114Z,23.10
2018-11-10T15:32:43.279Z,27.75
2018-11-10T15:35:13.973Z,23.07
2018-11-10T15:37:43.388Z,28.20
2018-11-10T15:40:12.450Z,23.98
2018-11-10T15:42:40.704Z,30.12
2018-11-10T15:45:09.959Z,28.23
2018-11-10T15:47:38.223Z,30.35
2018-11-10T15:50:07.791Z,26.87
2018-11-10T15:52:36.498Z,28.30
2018-11-10T15:55:05.206Z,25.17
2018-11-10T15:57:33.447Z,27.67
2018-11-10T16:00:01.808Z,32.00
2018-11-10T16:02:30.018Z,29.12
2018-11-10T16:04:58.375Z,33.95
2018-11-10T16:07:26.786Z,31.77
2018-11-10T16:09:55.066Z,36.00
2018-11-10T16:12:23.581Z,28.70
2018-11-10T16:14:51.850Z,29.82
2018-11-10T16:17:20.106Z,32.00
2018-11-10T16:19:48.371Z,33.95
2018-11-10T16:22:16.581Z,30.37
2018-11-10T16:24:44.939Z,29.80
2018-11-10T16:27:13.273Z,30.95
2018-11-10T16:29:41.727Z,30.88
2018-11-10T16:32:10.306Z,32.83
2018-11-10T16:34:38.715Z,32.98
2018-11-10T16:37:07.719Z,39.95
2018-11-10T16:39:35.979Z,34.10
2018-11-10T16:42:05.062Z,33.25
2018-11-10T16:44:33.623Z,37.65
2018-11-10T16:47:02.006Z,36.70
2018-11-10T16:49:30.409Z,32.20
2018-11-10T16:51:58.885Z,35.30
2018-11-10T16:54:27.185Z,31.93
2018-11-10T16:56:55.559Z,36.73
2018-11-10T16:59:24.791Z,37.00
2018-11-10T17:01:53.066Z,36.25
2018-11-10T17:04:21.338Z,39.63
2018-11-10T17:06:49.959Z,41.53
2018-11-10T17:09:18.215Z,42.78
2018-11-10T17:11:46.833Z,44.55
2018-11-10T17:14:15.092Z,50.75
2018-11-10T17:16:43.382Z,45.73
2018-11-10T17:19:11.583Z,47.58
2018-11-10T17:21:40.242Z,47.08
2018-11-10T17:24:08.406Z,42.80
2018-11-10T17:26:36.609Z,43.92
2018-11-10T17:29:04.899Z,44.00
2018-11-10T17:31:33.129Z,43.68
2018-11-10T17:34:01.362Z,49.83
2018-11-10T17:36:29.590Z,44.63
2018-11-10T17:38:57.875Z,54.20
2018-11-10T17:41:26.071Z,55.73
2018-11-10T17:43:54.316Z,57.85
2018-11-10T17:46:22.569Z,55.45
2018-11-10T17:48:50.785Z,50.95
2018-11-10T17:51:19.060Z,52.78
2018-11-10T17:53:47.363Z,51.63
2018-11-10T17:56:15.632Z,57.85
2018-11-10T17:58:44.040Z,50.78
2018-11-10T18:01:12.276Z,52.03
2018-11-10T18:03:40.536Z,56.33
2018-11-10T18:06:08.777Z,51.53
2018-11-10T18:08:37.055Z,54.03
2018-11-10T18:11:06.007Z,56.60
2018-11-10T18:13:34.250Z,56.53
2018-11-10T18:16:02.657Z,50.12
2018-11-10T18:18:30.908Z,52.70
2018-11-10T18:20:59.134Z,52.85
2018-11-10T18:23:27.372Z,54.63
2018-11-10T18:25:55.635Z,43.10
2018-11-10T18:28:23.848Z,49.88
2018-11-10T18:30:52.103Z,48.08
2018-11-10T18:33:20.361Z,49.05
2018-11-10T18:35:48.578Z,45.25
2018-11-10T18:38:16.932Z,43.48
2018-11-10T18:40:45.148Z,50.48
2018-11-10T18:43:14.263Z,51.10
2018-11-10T18:45:42.542Z,41.95
2018-11-10T18:48:10.924Z,44.75
2018-11-10T18:50:39.219Z,48.05
2018-11-10T18:53:07.504Z,50.38
2018-11-10T18:55:35.776Z,52.27
2018-11-10T18:58:04.213Z,50.80
2018-11-10T19:00:32.596Z,51.63
2018-11-10T19:03:00.812Z,54.40
2018-11-10T19:05:29.054Z,53.63
2018-11-10T19:07:57.353Z,51.98
2018-11-10T19:10:25.614Z,56.45
2018-11-10T19:12:53.883Z,55.85
2018-11-10T19:15:22.212Z,55.30
2018-11-10T19:17:50.660Z,52.60
2018-11-10T19:20:19.132Z,48.63
2018-11-10T19:22:47.544Z,54.55
2018-11-10T19:25:15.812Z,49.60
2018-11-10T19:27:44.095Z,51.13
2018-11-10T19:30:18.050Z,47.93
2018-11-10T19:32:47.142Z,47.35
2018-11-10T19:35:16.137Z,47.08
2018-11-10T19:37:44.736Z,45.15
2018-11-10T19:40:13.035Z,48.45
2018-11-10T19:42:42.221Z,44.88
2018-11-10T19:45:10.981Z,46.33
2018-11-10T19:47:40.499Z,47.30
2018-11-10T19:50:09.280Z,43.13
2018-11-10T19:52:37.411Z,40.03
2018-11-10T19:55:08.347Z,44.80
2018-11-10T19:57:36.610Z,47.15
2018-11-10T20:00:08.727Z,38.30
2018-11-10T20:02:36.954Z,51.63
2018-11-10T20:05:09.841Z,42.78
2018-11-10T20:07:38.213Z,34.70
2018-11-10T20:10:06.730Z,40.73
2018-11-10T20:12:34.967Z,37.42
2018-11-10T20:15:03.388Z,37.25
2018-11-10T20:17:31.599Z,42.60
2018-11-10T20:19:59.848Z,38.83
2018-11-10T20:22:28.107Z,46.95
2018-11-10T20:24:56.318Z,39.88
2018-11-10T20:27:24.558Z,46.92
2018-11-10T20:29:52.802Z,41.77
2018-11-10T20:32:21.066Z,41.70
2018-11-10T20:34:49.290Z,41.02
2018-11-10T20:37:17.558Z,43.50
2018-11-10T20:39:45.755Z,46.02
2018-11-10T20:42:13.968Z,35.40
2018-11-10T20:44:42.236Z,46.28
2018-11-10T20:47:10.414Z,49.23
2018-11-10T20:49:38.622Z,43.45
2018-11-10T20:52:06.846Z,38.20
2018-11-10T20:54:35.050Z,47.08
2018-11-10T20:57:03.275Z,45.20
2018-11-10T20:59:31.454Z,40.35
2018-11-10T21:01:59.692Z,40.58
2018-11-10T21:04:27.921Z,43.63
2018-11-10T21:06:56.139Z,40.35
2018-11-10T21:09:24.370Z,47.80
2018-11-10T21:11:52.602Z,42.33
2018-11-10T21:14:20.987Z,41.73
2018-11-10T21:16:49.200Z,42.03
2018-11-10T21:19:17.460Z,37.70
2018-11-10T21:21:45.733Z,45.45
2018-11-10T21:24:13.987Z,44.77
2018-11-10T21:26:42.258Z,43.85
2018-11-10T21:29:10.624Z,46.30
2018-11-10T21:31:38.750Z,41.00
2018-11-10T21:34:07.047Z,43.08
2018-11-10T21:36:35.314Z,37.88
2018-11-10T21:39:04.274Z,46.85
2018-11-10T21:41:32.564Z,46.15
2018-11-10T21:44:00.833Z,41.33
2018-11-10T21:46:29.159Z,52.75
2018-11-10T21:48:57.387Z,42.30
2018-11-10T21:51:25.619Z,43.25
2018-11-10T21:53:53.847Z,41.75
2018-11-10T21:56:22.084Z,44.42
2018-11-10T21:58:50.330Z,48.87
2018-11-10T22:01:18.569Z,47.30
2018-11-10T22:03:46.774Z,44.85
2018-11-10T22:06:14.990Z,43.20
2018-11-10T22:08:43.315Z,42.78
2018-11-10T22:11:11.448Z,40.12
2018-11-10T22:13:39.710Z,46.98
2018-11-10T22:16:07.968Z,51.95
2018-11-10T22:18:36.190Z,48.85
2018-11-10T22:21:04.756Z,40.73
2018-11-10T22:23:33.011Z,43.05
2018-11-10T22:26:01.218Z,49.05
2018-11-10T22:28:29.446Z,40.08
2018-11-10T22:30:58.110Z,37.03
2018-11-10T22:33:26.746Z,41.23
2018-11-10T22:35:54.970Z,45.92
2018-11-10T22:38:23.196Z,42.48
2018-11-10T22:40:51.417Z,39.20
2018-11-10T22:43:19.630Z,42.27
2018-11-10T22:45:47.874Z,34.55
2018-11-10T22:48:16.111Z,40.17
2018-11-10T22:50:44.352Z,35.28
2018-11-10T22:53:12.560Z,47.78
2018-11-10T22:55:40.846Z,45.28
2018-11-10T22:58:09.081Z,39.95
2018-11-10T23:00:41.535Z,39.83
2018-11-10T23:03:09.755Z,39.92
2018-11-10T23:05:37.979Z,33.55
2018-11-10T23:08:06.235Z,41.90
2018-11-10T23:10:34.509Z,37.42
2018-11-10T23:13:02.735Z,38.08
2018-11-10T23:15:30.979Z,42.75
2018-11-10T23:17:59.253Z,39.75
2018-11-10T23:20:27.546Z,39.85
2018-11-10T23:22:55.830Z,36.35
2018-11-10T23:25:24.036Z,32.85
2018-11-10T23:27:52.304Z,38.55
2018-11-10T23:30:21.809Z,33.02
2018-11-10T23:32:50.061Z,35.83
2018-11-10T23:35:18.283Z,39.25
2018-11-10T23:37:46.587Z,31.33
2018-11-10T23:40:15.790Z,35.17
2018-11-10T23:42:44.315Z,39.40
2018-11-10T23:45:13.261Z,31.48
2018-11-10T23:47:41.476Z,28.98
2018-11-10T23:50:12.308Z,35.30
2018-11-10T23:52:40.564Z,32.38
2018-11-10T23:55:09.954Z,28.92
2018-11-10T23:57:38.260Z,28.35
